sensor_id;sensor_type;location;lat;lon;timestamp;P1;durP1;ratioP1;P2;durP2;ratioP2
21645;SDS011;10984;45.712;4.800;2023-02-18T00:01:00;25.92;;;14.70;;
21645;SDS011;10984;45.712;4.800;2023-02-18T00:03:27;27.70;;;15.60;;
21645;SDS011;10984;45.712;4.800;2023-02-18T00:05:54;29.30;;;15.55;;
21645;SDS011;10984;45.712;4.800;2023-02-18T00:08:20;29.90;;;15.13;;
21645;SDS011;10984;45.712;4.800;2023-02-18T00:10:46;29.98;;;16.23;;
21645;SDS011;10984;45.712;4.800;2023-02-18T00:13:12;26.80;;;15.82;;
21645;SDS011;10984;45.712;4.800;2023-02-18T00:15:38;27.35;;;14.65;;
21645;SDS011;10984;45.712;4.800;2023-02-18T00:18:04;25.95;;;14.73;;
21645;SDS011;10984;45.712;4.800;2023-02-18T00:20:30;24.33;;;13.02;;
21645;SDS011;10984;45.712;4.800;2023-02-18T00:23:15;24.52;;;14.48;;
21645;SDS011;10984;45.712;4.800;2023-02-18T00:25:41;21.27;;;13.90;;
21645;SDS011;10984;45.712;4.800;2023-02-18T00:28:06;24.30;;;13.57;;
21645;SDS011;10984;45.712;4.800;2023-02-18T00:30:32;25.55;;;13.50;;
21645;SDS011;10984;45.712;4.800;2023-02-18T00:32:57;25.75;;;13.68;;
21645;SDS011;10984;45.712;4.800;2023-02-18T00:35:23;22.77;;;13.30;;
21645;SDS011;10984;45.712;4.800;2023-02-18T00:37:52;19.08;;;12.27;;
21645;SDS011;10984;45.712;4.800;2023-02-18T00:40:18;25.10;;;12.25;;
21645;SDS011;10984;45.712;4.800;2023-02-18T00:42:44;22.88;;;13.20;;
21645;SDS011;10984;45.712;4.800;2023-02-18T00:45:10;23.80;;;12.82;;
21645;SDS011;10984;45.712;4.800;2023-02-18T00:47:36;19.92;;;11.35;;
21645;SDS011;10984;45.712;4.800;2023-02-18T00:50:01;23.25;;;13.57;;
21645;SDS011;10984;45.712;4.800;2023-02-18T00:52:27;20.30;;;11.40;;
21645;SDS011;10984;45.712;4.800;2023-02-18T00:54:53;19.77;;;12.05;;
21645;SDS011;10984;45.712;4.800;2023-02-18T00:57:18;17.00;;;10.88;;
21645;SDS011;10984;45.712;4.800;2023-02-18T00:59:44;22.00;;;12.32;;
21645;SDS011;10984;45.712;4.800;2023-02-18T01:02:10;17.85;;;11.18;;
21645;SDS011;10984;45.712;4.800;2023-02-18T01:04:35;26.02;;;11.68;;
21645;SDS011;10984;45.712;4.800;2023-02-18T01:07:01;21.58;;;11.57;;
21645;SDS011;10984;45.712;4.800;2023-02-18T01:09:27;19.08;;;10.75;;
21645;SDS011;10984;45.712;4.800;2023-02-18T01:11:52;19.63;;;10.95;;
21645;SDS011;10984;45.712;4.800;2023-02-18T01:14:18;21.20;;;10.98;;
21645;SDS011;10984;45.712;4.800;2023-02-18T01:16:43;18.70;;;10.70;;
21645;SDS011;10984;45.712;4.800;2023-02-18T01:19:09;16.77;;;9.45;;
21645;SDS011;10984;45.712;4.800;2023-02-18T01:21:35;19.38;;;10.88;;
21645;SDS011;10984;45.712;4.800;2023-02-18T01:24:00;18.92;;;9.75;;
21645;SDS011;10984;45.712;4.800;2023-02-18T01:26:26;17.23;;;9.40;;
21645;SDS011;10984;45.712;4.800;2023-02-18T01:28:52;15.35;;;9.52;;
21645;SDS011;10984;45.712;4.800;2023-02-18T01:31:18;17.77;;;9.88;;
21645;SDS011;10984;45.712;4.800;2023-02-18T01:33:43;16.13;;;9.55;;
21645;SDS011;10984;45.712;4.800;2023-02-18T01:36:09;18.60;;;10.25;;
21645;SDS011;10984;45.712;4.800;2023-02-18T01:38:35;17.70;;;9.75;;
21645;SDS011;10984;45.712;4.800;2023-02-18T01:41:01;15.95;;;10.05;;
21645;SDS011;10984;45.712;4.800;2023-02-18T01:43:27;20.70;;;11.43;;
21645;SDS011;10984;45.712;4.800;2023-02-18T01:48:57;16.52;;;9.60;;
21645;SDS011;10984;45.712;4.800;2023-02-18T01:51:26;17.25;;;10.23;;
21645;SDS011;10984;45.712;4.800;2023-02-18T01:57:00;16.15;;;9.45;;
21645;SDS011;10984;45.712;4.800;2023-02-18T02:02:18;15.07;;;8.82;;
21645;SDS011;10984;45.712;4.800;2023-02-18T02:04:45;20.42;;;9.95;;
21645;SDS011;10984;45.712;4.800;2023-02-18T02:07:12;22.65;;;10.70;;
21645;SDS011;10984;45.712;4.800;2023-02-18T02:09:38;23.98;;;10.88;;
21645;SDS011;10984;45.712;4.800;2023-02-18T02:35:44;19.55;;;10.70;;
21645;SDS011;10984;45.712;4.800;2023-02-18T02:53:26;24.45;;;11.38;;
21645;SDS011;10984;45.712;4.800;2023-02-18T02:55:54;19.65;;;10.88;;
21645;SDS011;10984;45.712;4.800;2023-02-18T02:58:21;20.10;;;10.48;;
21645;SDS011;10984;45.712;4.800;2023-02-18T03:17:59;17.42;;;9.75;;
21645;SDS011;10984;45.712;4.800;2023-02-18T03:20:47;16.88;;;9.73;;
21645;SDS011;10984;45.712;4.800;2023-02-18T03:23:36;19.27;;;10.38;;
21645;SDS011;10984;45.712;4.800;2023-02-18T03:26:05;21.73;;;10.57;;
21645;SDS011;10984;45.712;4.800;2023-02-18T03:28:33;19.55;;;10.38;;
21645;SDS011;10984;45.712;4.800;2023-02-18T03:33:47;16.50;;;9.73;;
21645;SDS011;10984;45.712;4.800;2023-02-18T03:36:20;22.30;;;9.90;;
21645;SDS011;10984;45.712;4.800;2023-02-18T03:38:49;16.35;;;9.60;;
21645;SDS011;10984;45.712;4.800;2023-02-18T03:41:34;18.75;;;9.75;;
21645;SDS011;10984;45.712;4.800;2023-02-18T03:44:05;20.42;;;10.75;;
21645;SDS011;10984;45.712;4.800;2023-02-18T03:46:32;17.92;;;10.70;;
21645;SDS011;10984;45.712;4.800;2023-02-18T03:48:59;19.55;;;9.43;;
21645;SDS011;10984;45.712;4.800;2023-02-18T03:51:25;16.50;;;9.52;;
21645;SDS011;10984;45.712;4.800;2023-02-18T03:53:51;18.17;;;10.23;;
21645;SDS011;10984;45.712;4.800;2023-02-18T03:56:17;19.75;;;10.60;;
21645;SDS011;10984;45.712;4.800;2023-02-18T03:58:43;19.70;;;9.75;;
21645;SDS011;10984;45.712;4.800;2023-02-18T04:01:09;18.33;;;10.18;;
21645;SDS011;10984;45.712;4.800;2023-02-18T04:03:35;16.88;;;8.93;;
21645;SDS011;10984;45.712;4.800;2023-02-18T04:06:01;14.43;;;8.95;;
21645;SDS011;10984;45.712;4.800;2023-02-18T04:08:27;16.75;;;9.50;;
21645;SDS011;10984;45.712;4.800;2023-02-18T04:10:52;15.50;;;9.55;;
21645;SDS011;10984;45.712;4.800;2023-02-18T04:13:18;13.10;;;8.23;;
21645;SDS011;10984;45.712;4.800;2023-02-18T04:15:44;15.80;;;8.07;;
21645;SDS011;10984;45.712;4.800;2023-02-18T04:18:12;15.57;;;9.23;;
21645;SDS011;10984;45.712;4.800;2023-02-18T04:20:38;18.48;;;9.35;;
21645;SDS011;10984;45.712;4.800;2023-02-18T04:23:04;17.80;;;10.35;;
21645;SDS011;10984;45.712;4.800;2023-02-18T04:25:29;16.95;;;10.00;;
21645;SDS011;10984;45.712;4.800;2023-02-18T04:27:55;15.32;;;9.45;;
21645;SDS011;10984;45.712;4.800;2023-02-18T04:30:21;18.60;;;9.75;;
21645;SDS011;10984;45.712;4.800;2023-02-18T04:32:47;15.38;;;7.88;;
21645;SDS011;10984;45.712;4.800;2023-02-18T04:35:12;16.02;;;8.57;;
21645;SDS011;10984;45.712;4.800;2023-02-18T04:37:38;16.25;;;8.43;;
21645;SDS011;10984;45.712;4.800;2023-02-18T04:40:04;13.25;;;7.00;;
21645;SDS011;10984;45.712;4.800;2023-02-18T04:42:30;15.20;;;7.82;;
21645;SDS011;10984;45.712;4.800;2023-02-18T04:44:56;11.45;;;7.28;;
21645;SDS011;10984;45.712;4.800;2023-02-18T04:47:21;18.27;;;8.90;;
21645;SDS011;10984;45.712;4.800;2023-02-18T04:49:47;13.55;;;7.35;;
21645;SDS011;10984;45.712;4.800;2023-02-18T04:52:13;16.70;;;8.23;;
21645;SDS011;10984;45.712;4.800;2023-02-18T04:54:39;12.70;;;7.20;;
21645;SDS011;10984;45.712;4.800;2023-02-18T04:57:04;14.38;;;7.30;;
21645;SDS011;10984;45.712;4.800;2023-02-18T04:59:30;11.48;;;6.85;;
21645;SDS011;10984;45.712;4.800;2023-02-18T05:01:56;13.77;;;7.65;;
21645;SDS011;10984;45.712;4.800;2023-02-18T05:04:21;14.30;;;7.70;;
21645;SDS011;10984;45.712;4.800;2023-02-18T05:06:47;17.25;;;8.30;;
21645;SDS011;10984;45.712;4.800;2023-02-18T05:09:13;16.45;;;8.10;;
21645;SDS011;10984;45.712;4.800;2023-02-18T05:11:39;15.57;;;8.73;;
21645;SDS011;10984;45.712;4.800;2023-02-18T05:14:05;12.70;;;6.88;;
21645;SDS011;10984;45.712;4.800;2023-02-18T05:16:31;17.50;;;7.45;;
21645;SDS011;10984;45.712;4.800;2023-02-18T05:18:56;14.48;;;7.85;;
21645;SDS011;10984;45.712;4.800;2023-02-18T05:21:22;16.85;;;7.70;;
21645;SDS011;10984;45.712;4.800;2023-02-18T05:23:48;12.30;;;6.85;;
21645;SDS011;10984;45.712;4.800;2023-02-18T05:26:13;14.88;;;7.82;;
21645;SDS011;10984;45.712;4.800;2023-02-18T05:28:39;16.92;;;8.68;;
21645;SDS011;10984;45.712;4.800;2023-02-18T05:31:04;15.52;;;8.05;;
21645;SDS011;10984;45.712;4.800;2023-02-18T05:33:30;15.82;;;8.52;;
21645;SDS011;10984;45.712;4.800;2023-02-18T05:35:56;13.38;;;7.47;;
21645;SDS011;10984;45.712;4.800;2023-02-18T05:38:21;16.40;;;8.55;;
21645;SDS011;10984;45.712;4.800;2023-02-18T05:40:47;18.02;;;8.80;;
21645;SDS011;10984;45.712;4.800;2023-02-18T05:43:13;15.70;;;7.95;;
21645;SDS011;10984;45.712;4.800;2023-02-18T05:45:39;12.35;;;7.18;;
21645;SDS011;10984;45.712;4.800;2023-02-18T05:48:04;15.43;;;7.55;;
21645;SDS011;10984;45.712;4.800;2023-02-18T05:50:30;14.68;;;8.10;;
21645;SDS011;10984;45.712;4.800;2023-02-18T05:52:56;12.65;;;6.95;;
21645;SDS011;10984;45.712;4.800;2023-02-18T05:55:22;14.88;;;7.57;;
21645;SDS011;10984;45.712;4.800;2023-02-18T05:57:48;15.88;;;9.13;;
21645;SDS011;10984;45.712;4.800;2023-02-18T06:00:14;13.82;;;7.35;;
21645;SDS011;10984;45.712;4.800;2023-02-18T06:02:40;15.32;;;7.45;;
21645;SDS011;10984;45.712;4.800;2023-02-18T06:05:07;15.15;;;7.88;;
21645;SDS011;10984;45.712;4.800;2023-02-18T06:07:33;14.90;;;8.20;;
21645;SDS011;10984;45.712;4.800;2023-02-18T06:09:58;15.13;;;8.10;;
21645;SDS011;10984;45.712;4.800;2023-02-18T06:12:24;12.55;;;7.57;;
21645;SDS011;10984;45.712;4.800;2023-02-18T06:14:50;14.52;;;8.20;;
21645;SDS011;10984;45.712;4.800;2023-02-18T06:17:15;17.55;;;8.98;;
21645;SDS011;10984;45.712;4.800;2023-02-18T06:19:42;15.18;;;8.75;;
21645;SDS011;10984;45.712;4.800;2023-02-18T06:22:08;15.15;;;8.05;;
21645;SDS011;10984;45.712;4.800;2023-02-18T06:24:34;17.63;;;9.25;;
21645;SDS011;10984;45.712;4.800;2023-02-18T06:27:00;16.80;;;8.95;;
21645;SDS011;10984;45.712;4.800;2023-02-18T06:29:26;16.55;;;9.40;;
21645;SDS011;10984;45.712;4.800;2023-02-18T06:31:54;19.10;;;9.68;;
21645;SDS011;10984;45.712;4.800;2023-02-18T06:34:19;22.30;;;9.85;;
21645;SDS011;10984;45.712;4.800;2023-02-18T06:36:45;16.85;;;9.05;;
21645;SDS011;10984;45.712;4.800;2023-02-18T06:39:11;15.80;;;8.45;;
21645;SDS011;10984;45.712;4.800;2023-02-18T06:41:36;20.98;;;8.85;;
21645;SDS011;10984;45.712;4.800;2023-02-18T06:44:02;15.93;;;9.15;;
21645;SDS011;10984;45.712;4.800;2023-02-18T06:46:28;17.45;;;8.82;;
21645;SDS011;10984;45.712;4.800;2023-02-18T06:48:54;15.57;;;8.85;;
21645;SDS011;10984;45.712;4.800;2023-02-18T06:51:19;16.23;;;8.50;;
21645;SDS011;10984;45.712;4.800;2023-02-18T06:53:45;16.70;;;8.88;;
21645;SDS011;10984;45.712;4.800;2023-02-18T06:56:11;15.57;;;8.35;;
21645;SDS011;10984;45.712;4.800;2023-02-18T06:58:36;16.25;;;8.20;;
21645;SDS011;10984;45.712;4.800;2023-02-18T07:01:03;13.00;;;7.85;;
21645;SDS011;10984;45.712;4.800;2023-02-18T07:03:29;13.10;;;7.88;;
21645;SDS011;10984;45.712;4.800;2023-02-18T07:05:54;17.38;;;8.55;;
21645;SDS011;10984;45.712;4.800;2023-02-18T07:08:20;15.98;;;8.50;;
21645;SDS011;10984;45.712;4.800;2023-02-18T07:10:46;15.68;;;8.80;;
21645;SDS011;10984;45.712;4.800;2023-02-18T07:13:12;14.95;;;8.32;;
21645;SDS011;10984;45.712;4.800;2023-02-18T07:15:38;17.13;;;8.18;;
21645;SDS011;10984;45.712;4.800;2023-02-18T07:18:04;18.52;;;9.65;;
21645;SDS011;10984;45.712;4.800;2023-02-18T07:20:29;15.82;;;9.68;;
21645;SDS011;10984;45.712;4.800;2023-02-18T07:22:55;17.63;;;8.65;;
21645;SDS011;10984;45.712;4.800;2023-02-18T07:25:21;17.30;;;9.25;;
21645;SDS011;10984;45.712;4.800;2023-02-18T07:27:47;16.75;;;9.10;;
21645;SDS011;10984;45.712;4.800;2023-02-18T07:30:13;16.98;;;9.85;;
21645;SDS011;10984;45.712;4.800;2023-02-18T07:32:39;25.00;;;12.55;;
21645;SDS011;10984;45.712;4.800;2023-02-18T07:35:05;18.05;;;10.10;;
21645;SDS011;10984;45.712;4.800;2023-02-18T07:37:31;20.23;;;9.90;;
21645;SDS011;10984;45.712;4.800;2023-02-18T07:39:57;18.63;;;10.00;;
21645;SDS011;10984;45.712;4.800;2023-02-18T07:42:22;13.90;;;8.30;;
21645;SDS011;10984;45.712;4.800;2023-02-18T07:44:48;17.23;;;9.60;;
21645;SDS011;10984;45.712;4.800;2023-02-18T07:47:15;14.27;;;7.45;;
21645;SDS011;10984;45.712;4.800;2023-02-18T07:49:43;18.88;;;10.05;;
21645;SDS011;10984;45.712;4.800;2023-02-18T07:52:10;15.15;;;8.40;;
21645;SDS011;10984;45.712;4.800;2023-02-18T07:54:36;16.55;;;8.48;;
21645;SDS011;10984;45.712;4.800;2023-02-18T07:57:02;12.95;;;7.88;;
21645;SDS011;10984;45.712;4.800;2023-02-18T07:59:27;15.55;;;8.50;;
21645;SDS011;10984;45.712;4.800;2023-02-18T08:01:53;15.15;;;8.43;;
21645;SDS011;10984;45.712;4.800;2023-02-18T08:04:19;16.27;;;7.93;;
21645;SDS011;10984;45.712;4.800;2023-02-18T08:06:45;14.60;;;8.13;;
21645;SDS011;10984;45.712;4.800;2023-02-18T08:09:13;14.55;;;7.53;;
21645;SDS011;10984;45.712;4.800;2023-02-18T08:11:39;13.65;;;8.10;;
21645;SDS011;10984;45.712;4.800;2023-02-18T08:14:05;15.43;;;8.05;;
21645;SDS011;10984;45.712;4.800;2023-02-18T08:16:31;14.98;;;7.85;;
21645;SDS011;10984;45.712;4.800;2023-02-18T08:18:56;13.95;;;7.50;;
21645;SDS011;10984;45.712;4.800;2023-02-18T08:21:23;14.88;;;8.73;;
21645;SDS011;10984;45.712;4.800;2023-02-18T08:23:50;16.85;;;7.63;;
21645;SDS011;10984;45.712;4.800;2023-02-18T08:26:16;14.23;;;8.07;;
21645;SDS011;10984;45.712;4.800;2023-02-18T08:28:43;13.70;;;8.07;;
21645;SDS011;10984;45.712;4.800;2023-02-18T08:33:56;16.70;;;8.65;;
21645;SDS011;10984;45.712;4.800;2023-02-18T08:36:23;13.55;;;7.43;;
21645;SDS011;10984;45.712;4.800;2023-02-18T08:38:49;15.75;;;8.65;;
21645;SDS011;10984;45.712;4.800;2023-02-18T08:41:15;14.50;;;7.88;;
21645;SDS011;10984;45.712;4.800;2023-02-18T08:43:43;14.52;;;8.32;;
21645;SDS011;10984;45.712;4.800;2023-02-18T08:46:09;15.13;;;9.15;;
21645;SDS011;10984;45.712;4.800;2023-02-18T08:48:35;13.65;;;7.78;;
21645;SDS011;10984;45.712;4.800;2023-02-18T08:51:09;13.88;;;8.65;;
21645;SDS011;10984;45.712;4.800;2023-02-18T08:53:46;15.35;;;8.15;;
21645;SDS011;10984;45.712;4.800;2023-02-18T08:56:12;16.50;;;8.25;;
21645;SDS011;10984;45.712;4.800;2023-02-18T08:58:39;19.90;;;10.60;;
21645;SDS011;10984;45.712;4.800;2023-02-18T09:01:07;15.15;;;8.40;;
21645;SDS011;10984;45.712;4.800;2023-02-18T09:03:34;20.83;;;9.27;;
21645;SDS011;10984;45.712;4.800;2023-02-18T09:06:00;17.83;;;9.80;;
21645;SDS011;10984;45.712;4.800;2023-02-18T09:08:26;17.10;;;8.75;;
21645;SDS011;10984;45.712;4.800;2023-02-18T09:13:36;12.73;;;7.57;;
21645;SDS011;10984;45.712;4.800;2023-02-18T09:16:03;15.98;;;8.18;;
21645;SDS011;10984;45.712;4.800;2023-02-18T09:18:32;25.50;;;8.85;;
21645;SDS011;10984;45.712;4.800;2023-02-18T09:21:00;26.30;;;7.93;;
21645;SDS011;10984;45.712;4.800;2023-02-18T09:23:27;17.98;;;9.55;;
21645;SDS011;10984;45.712;4.800;2023-02-18T09:25:54;22.23;;;11.80;;
21645;SDS011;10984;45.712;4.800;2023-02-18T09:28:20;17.20;;;10.35;;
21645;SDS011;10984;45.712;4.800;2023-02-18T09:30:45;16.38;;;10.68;;
21645;SDS011;10984;45.712;4.800;2023-02-18T09:33:11;17.92;;;11.95;;
21645;SDS011;10984;45.712;4.800;2023-02-18T09:35:38;17.65;;;11.70;;
21645;SDS011;10984;45.712;4.800;2023-02-18T09:38:06;20.52;;;11.38;;
21645;SDS011;10984;45.712;4.800;2023-02-18T09:40:32;15.48;;;10.18;;
21645;SDS011;10984;45.712;4.800;2023-02-18T09:43:01;18.73;;;10.82;;
21645;SDS011;10984;45.712;4.800;2023-02-18T09:45:27;18.33;;;10.77;;
21645;SDS011;10984;45.712;4.800;2023-02-18T09:47:54;17.25;;;10.02;;
21645;SDS011;10984;45.712;4.800;2023-02-18T09:52:47;21.17;;;11.82;;
21645;SDS011;10984;45.712;4.800;2023-02-18T09:55:23;18.02;;;9.73;;
21645;SDS011;10984;45.712;4.800;2023-02-18T09:57:54;19.95;;;9.82;;
21645;SDS011;10984;45.712;4.800;2023-02-18T10:00:40;14.90;;;9.70;;
21645;SDS011;10984;45.712;4.800;2023-02-18T10:05:58;15.18;;;9.45;;
21645;SDS011;10984;45.712;4.800;2023-02-18T10:08:44;18.33;;;9.52;;
21645;SDS011;10984;45.712;4.800;2023-02-18T10:11:13;14.98;;;9.10;;
21645;SDS011;10984;45.712;4.800;2023-02-18T10:13:41;13.45;;;8.82;;
21645;SDS011;10984;45.712;4.800;2023-02-18T10:16:07;16.08;;;9.55;;
21645;SDS011;10984;45.712;4.800;2023-02-18T10:18:41;15.13;;;9.35;;
21645;SDS011;10984;45.712;4.800;2023-02-18T10:21:10;19.05;;;9.20;;
21645;SDS011;10984;45.712;4.800;2023-02-18T10:26:23;16.48;;;9.25;;
21645;SDS011;10984;45.712;4.800;2023-02-18T10:28:49;17.33;;;9.43;;
21645;SDS011;10984;45.712;4.800;2023-02-18T10:52:21;15.00;;;9.23;;
21645;SDS011;10984;45.712;4.800;2023-02-18T10:57:44;12.73;;;7.53;;
21645;SDS011;10984;45.712;4.800;2023-02-18T11:05:47;16.25;;;8.43;;
21645;SDS011;10984;45.712;4.800;2023-02-18T11:08:26;16.63;;;9.07;;
21645;SDS011;10984;45.712;4.800;2023-02-18T11:11:05;12.35;;;7.85;;
21645;SDS011;10984;45.712;4.800;2023-02-18T11:13:38;13.40;;;8.50;;
21645;SDS011;10984;45.712;4.800;2023-02-18T11:16:06;12.95;;;7.13;;
21645;SDS011;10984;45.712;4.800;2023-02-18T11:21:19;12.63;;;6.22;;
21645;SDS011;10984;45.712;4.800;2023-02-18T11:26:48;11.80;;;6.50;;
21645;SDS011;10984;45.712;4.800;2023-02-18T11:29:16;11.27;;;6.03;;
21645;SDS011;10984;45.712;4.800;2023-02-18T11:31:45;10.40;;;5.05;;
21645;SDS011;10984;45.712;4.800;2023-02-18T11:34:22;8.80;;;4.35;;
21645;SDS011;10984;45.712;4.800;2023-02-18T11:36:52;8.65;;;4.45;;
21645;SDS011;10984;45.712;4.800;2023-02-18T11:42:10;7.20;;;4.20;;
21645;SDS011;10984;45.712;4.800;2023-02-18T11:53:18;4.95;;;2.85;;
21645;SDS011;10984;45.712;4.800;2023-02-18T11:56:15;6.93;;;3.40;;
21645;SDS011;10984;45.712;4.800;2023-02-18T11:58:42;6.88;;;3.08;;
21645;SDS011;10984;45.712;4.800;2023-02-18T12:01:16;7.78;;;3.85;;
21645;SDS011;10984;45.712;4.800;2023-02-18T12:09:58;8.02;;;4.60;;
21645;SDS011;10984;45.712;4.800;2023-02-18T12:15:17;8.02;;;3.92;;
21645;SDS011;10984;45.712;4.800;2023-02-18T12:36:00;5.63;;;3.08;;
21645;SDS011;10984;45.712;4.800;2023-02-18T12:38:49;5.63;;;2.97;;
21645;SDS011;10984;45.712;4.800;2023-02-18T13:10:23;6.97;;;3.70;;
21645;SDS011;10984;45.712;4.800;2023-02-18T13:18:49;5.40;;;2.58;;
21645;SDS011;10984;45.712;4.800;2023-02-18T13:21:18;5.68;;;3.00;;
21645;SDS011;10984;45.712;4.800;2023-02-18T13:26:48;4.55;;;2.17;;
21645;SDS011;10984;45.712;4.800;2023-02-18T13:41:21;4.22;;;1.77;;
21645;SDS011;10984;45.712;4.800;2023-02-18T13:43:47;4.47;;;2.35;;
21645;SDS011;10984;45.712;4.800;2023-02-18T13:46:14;5.53;;;2.97;;
21645;SDS011;10984;45.712;4.800;2023-02-18T13:51:27;5.43;;;2.55;;
21645;SDS011;10984;45.712;4.800;2023-02-18T13:53:58;5.15;;;2.60;;
21645;SDS011;10984;45.712;4.800;2023-02-18T13:56:28;6.50;;;3.25;;
21645;SDS011;10984;45.712;4.800;2023-02-18T14:01:44;4.85;;;2.65;;
21645;SDS011;10984;45.712;4.800;2023-02-18T14:13:24;5.20;;;1.77;;
21645;SDS011;10984;45.712;4.800;2023-02-18T14:15:52;5.50;;;1.92;;
21645;SDS011;10984;45.712;4.800;2023-02-18T14:24:10;7.78;;;2.10;;
21645;SDS011;10984;45.712;4.800;2023-02-18T14:29:30;3.25;;;1.75;;
21645;SDS011;10984;45.712;4.800;2023-02-18T14:31:59;4.20;;;2.35;;
21645;SDS011;10984;45.712;4.800;2023-02-18T14:34:31;4.80;;;1.90;;
21645;SDS011;10984;45.712;4.800;2023-02-18T14:40:23;3.65;;;1.58;;
21645;SDS011;10984;45.712;4.800;2023-02-18T14:48:41;3.90;;;1.70;;
21645;SDS011;10984;45.712;4.800;2023-02-18T14:51:07;3.00;;;1.30;;
21645;SDS011;10984;45.712;4.800;2023-02-18T14:53:38;4.15;;;1.58;;
21645;SDS011;10984;45.712;4.800;2023-02-18T14:56:07;4.10;;;1.52;;
21645;SDS011;10984;45.712;4.800;2023-02-18T14:58:38;4.55;;;1.20;;
21645;SDS011;10984;45.712;4.800;2023-02-18T15:04:11;4.10;;;1.40;;
21645;SDS011;10984;45.712;4.800;2023-02-18T15:06:39;3.17;;;1.40;;
21645;SDS011;10984;45.712;4.800;2023-02-18T15:14:35;6.07;;;1.35;;
21645;SDS011;10984;45.712;4.800;2023-02-18T15:17:03;1.92;;;1.08;;
21645;SDS011;10984;45.712;4.800;2023-02-18T15:22:18;2.88;;;1.30;;
21645;SDS011;10984;45.712;4.800;2023-02-18T15:24:47;2.78;;;1.30;;
21645;SDS011;10984;45.712;4.800;2023-02-18T15:33:09;3.47;;;1.23;;
21645;SDS011;10984;45.712;4.800;2023-02-18T15:35:39;4.22;;;1.67;;
21645;SDS011;10984;45.712;4.800;2023-02-18T15:38:12;3.80;;;1.23;;
21645;SDS011;10984;45.712;4.800;2023-02-18T15:40:40;2.00;;;1.05;;
21645;SDS011;10984;45.712;4.800;2023-02-18T15:43:06;3.63;;;1.70;;
21645;SDS011;10984;45.712;4.800;2023-02-18T15:48:28;6.10;;;1.70;;
21645;SDS011;10984;45.712;4.800;2023-02-18T15:54:00;3.72;;;1.50;;
21645;SDS011;10984;45.712;4.800;2023-02-18T16:01:43;2.45;;;1.00;;
21645;SDS011;10984;45.712;4.800;2023-02-18T16:04:16;3.05;;;1.10;;
21645;SDS011;10984;45.712;4.800;2023-02-18T16:09:29;3.10;;;1.25;;
21645;SDS011;10984;45.712;4.800;2023-02-18T16:11:58;3.50;;;1.08;;
21645;SDS011;10984;45.712;4.800;2023-02-18T16:19:59;3.75;;;1.80;;
21645;SDS011;10984;45.712;4.800;2023-02-18T16:25:16;4.15;;;2.00;;
21645;SDS011;10984;45.712;4.800;2023-02-18T16:30:31;3.90;;;1.67;;
21645;SDS011;10984;45.712;4.800;2023-02-18T16:32:58;3.03;;;1.63;;
21645;SDS011;10984;45.712;4.800;2023-02-18T16:35:25;4.05;;;1.60;;
21645;SDS011;10984;45.712;4.800;2023-02-18T16:37:53;2.63;;;1.15;;
21645;SDS011;10984;45.712;4.800;2023-02-18T16:45:54;4.22;;;1.40;;
21645;SDS011;10984;45.712;4.800;2023-02-18T16:51:12;4.53;;;1.40;;
21645;SDS011;10984;45.712;4.800;2023-02-18T16:53:40;4.20;;;2.05;;
21645;SDS011;10984;45.712;4.800;2023-02-18T16:58:54;3.60;;;1.52;;
21645;SDS011;10984;45.712;4.800;2023-02-18T17:04:09;3.30;;;1.50;;
21645;SDS011;10984;45.712;4.800;2023-02-18T17:06:36;3.90;;;1.67;;
21645;SDS011;10984;45.712;4.800;2023-02-18T17:09:05;3.78;;;1.42;;
21645;SDS011;10984;45.712;4.800;2023-02-18T17:11:52;4.57;;;1.60;;
21645;SDS011;10984;45.712;4.800;2023-02-18T17:14:19;7.05;;;2.80;;
21645;SDS011;10984;45.712;4.800;2023-02-18T17:16:46;4.85;;;2.47;;
21645;SDS011;10984;45.712;4.800;2023-02-18T17:19:13;6.10;;;3.03;;
21645;SDS011;10984;45.712;4.800;2023-02-18T17:21:39;5.30;;;2.50;;
21645;SDS011;10984;45.712;4.800;2023-02-18T17:24:05;5.03;;;2.22;;
21645;SDS011;10984;45.712;4.800;2023-02-18T17:26:30;6.65;;;3.90;;
21645;SDS011;10984;45.712;4.800;2023-02-18T17:28:57;8.05;;;5.65;;
21645;SDS011;10984;45.712;4.800;2023-02-18T17:36:56;11.35;;;4.90;;
21645;SDS011;10984;45.712;4.800;2023-02-18T17:39:22;11.32;;;5.22;;
21645;SDS011;10984;45.712;4.800;2023-02-18T17:41:48;10.00;;;5.00;;
21645;SDS011;10984;45.712;4.800;2023-02-18T17:46:41;9.10;;;4.97;;
21645;SDS011;10984;45.712;4.800;2023-02-18T17:49:06;7.45;;;3.65;;
21645;SDS011;10984;45.712;4.800;2023-02-18T17:51:32;5.53;;;3.15;;
21645;SDS011;10984;45.712;4.800;2023-02-18T17:54:00;14.68;;;6.55;;
21645;SDS011;10984;45.712;4.800;2023-02-18T17:56:26;24.42;;;11.52;;
21645;SDS011;10984;45.712;4.800;2023-02-18T17:58:52;12.27;;;6.30;;
21645;SDS011;10984;45.712;4.800;2023-02-18T18:01:18;8.23;;;4.88;;
21645;SDS011;10984;45.712;4.800;2023-02-18T18:03:45;9.00;;;6.00;;
21645;SDS011;10984;45.712;4.800;2023-02-18T18:08:56;11.35;;;5.47;;
21645;SDS011;10984;45.712;4.800;2023-02-18T18:11:22;9.10;;;6.10;;
21645;SDS011;10984;45.712;4.800;2023-02-18T18:13:49;10.30;;;5.90;;
21645;SDS011;10984;45.712;4.800;2023-02-18T18:16:16;10.23;;;6.50;;
21645;SDS011;10984;45.712;4.800;2023-02-18T18:18:42;11.50;;;5.57;;
21645;SDS011;10984;45.712;4.800;2023-02-18T18:24:12;13.55;;;6.72;;
21645;SDS011;10984;45.712;4.800;2023-02-18T18:26:38;18.83;;;10.60;;
21645;SDS011;10984;45.712;4.800;2023-02-18T18:29:03;25.08;;;13.15;;
21645;SDS011;10984;45.712;4.800;2023-02-18T18:31:29;29.23;;;14.68;;
21645;SDS011;10984;45.712;4.800;2023-02-18T18:33:56;19.67;;;10.88;;
21645;SDS011;10984;45.712;4.800;2023-02-18T18:36:22;17.85;;;10.38;;
21645;SDS011;10984;45.712;4.800;2023-02-18T18:39:06;16.40;;;9.23;;
21645;SDS011;10984;45.712;4.800;2023-02-18T18:41:32;13.73;;;8.40;;
21645;SDS011;10984;45.712;4.800;2023-02-18T18:43:58;17.63;;;9.32;;
21645;SDS011;10984;45.712;4.800;2023-02-18T18:46:23;17.15;;;10.00;;
21645;SDS011;10984;45.712;4.800;2023-02-18T18:48:49;14.98;;;8.65;;
21645;SDS011;10984;45.712;4.800;2023-02-18T18:51:15;18.23;;;10.02;;
21645;SDS011;10984;45.712;4.800;2023-02-18T18:53:45;18.27;;;11.30;;
21645;SDS011;10984;45.712;4.800;2023-02-18T18:56:11;19.67;;;10.32;;
21645;SDS011;10984;45.712;4.800;2023-02-18T18:58:37;16.80;;;8.82;;
21645;SDS011;10984;45.712;4.800;2023-02-18T19:01:04;17.50;;;10.40;;
21645;SDS011;10984;45.712;4.800;2023-02-18T19:03:36;14.52;;;7.45;;
21645;SDS011;10984;45.712;4.800;2023-02-18T19:06:02;15.10;;;7.78;;
21645;SDS011;10984;45.712;4.800;2023-02-18T19:08:28;11.98;;;7.25;;
21645;SDS011;10984;45.712;4.800;2023-02-18T19:10:56;15.07;;;7.32;;
21645;SDS011;10984;45.712;4.800;2023-02-18T19:16:07;11.32;;;6.22;;
21645;SDS011;10984;45.712;4.800;2023-02-18T19:18:36;10.60;;;6.20;;
21645;SDS011;10984;45.712;4.800;2023-02-18T19:21:01;9.57;;;5.38;;
21645;SDS011;10984;45.712;4.800;2023-02-18T19:23:29;8.93;;;5.32;;
21645;SDS011;10984;45.712;4.800;2023-02-18T19:25:55;11.13;;;5.82;;
21645;SDS011;10984;45.712;4.800;2023-02-18T19:28:22;11.50;;;6.25;;
21645;SDS011;10984;45.712;4.800;2023-02-18T19:30:48;12.65;;;6.25;;
21645;SDS011;10984;45.712;4.800;2023-02-18T19:33:14;12.57;;;6.47;;
21645;SDS011;10984;45.712;4.800;2023-02-18T19:35:40;12.63;;;6.78;;
21645;SDS011;10984;45.712;4.800;2023-02-18T19:38:07;13.50;;;6.47;;
21645;SDS011;10984;45.712;4.800;2023-02-18T19:40:35;14.50;;;7.32;;
21645;SDS011;10984;45.712;4.800;2023-02-18T19:43:01;13.07;;;7.40;;
21645;SDS011;10984;45.712;4.800;2023-02-18T19:45:27;12.43;;;7.30;;